createdAt,value
2019-04-27T00:00:03.631Z,999.33
2019-04-27T00:05:03.293Z,999.39
2019-04-27T00:10:03.347Z,999.36
2019-04-27T00:15:03.330Z,999.36
2019-04-27T00:20:01.586Z,999.28
2019-04-27T00:25:03.420Z,999.2
2019-04-27T00:30:03.708Z,999.17
2019-04-27T00:35:03.710Z,999.14
2019-04-27T00:40:03.452Z,999.11
2019-04-27T00:45:03.006Z,999.08
2019-04-27T00:50:03.445Z,999.01
2019-04-27T00:55:03.160Z,998.96
2019-04-27T01:00:03.181Z,998.91
2019-04-27T01:05:03.757Z,998.89
2019-04-27T01:10:03.012Z,998.81
2019-04-27T01:15:01.348Z,998.75
2019-04-27T01:20:01.476Z,998.74
2019-04-27T01:25:01.616Z,998.7
2019-04-27T01:30:01.878Z,998.6
2019-04-27T01:35:02.155Z,998.56
2019-04-27T01:40:01.812Z,998.59
2019-04-27T01:45:01.947Z,998.52
2019-04-27T01:50:02.079Z,998.48
2019-04-27T01:55:01.242Z,998.52
2019-04-27T02:00:01.391Z,998.49
2019-04-27T02:05:01.902Z,998.42
2019-04-27T02:10:02.102Z,998.49
2019-04-27T02:15:01.840Z,998.48
2019-04-27T02:20:02.013Z,998.42
2019-04-27T02:25:01.147Z,998.4
2019-04-27T02:30:01.339Z,998.37
2019-04-27T02:35:01.539Z,998.37
2019-04-27T02:40:01.991Z,998.29
2019-04-27T02:45:01.138Z,998.28
2019-04-27T02:50:01.298Z,998.14
2019-04-27T02:55:01.450Z,998.11
2019-04-27T03:00:01.594Z,998.11
2019-04-27T03:05:01.752Z,998.12
2019-04-27T03:10:02.731Z,998.05
2019-04-27T03:15:02.065Z,997.97
2019-04-27T03:20:01.174Z,997.86
2019-04-27T03:25:01.314Z,997.81
2019-04-27T03:30:01.466Z,997.71
2019-04-27T03:35:03.154Z,997.6
2019-04-27T03:40:01.808Z,997.62
2019-04-27T03:45:01.939Z,997.45
2019-04-27T03:50:02.070Z,997.27
2019-04-27T03:55:01.233Z,997.32
2019-04-27T04:00:01.335Z,997.2
2019-04-27T04:05:01.494Z,997.2
2019-04-27T04:10:01.654Z,997.16
2019-04-27T04:15:01.809Z,997.18
2019-04-27T04:20:02.111Z,997.17
2019-04-27T04:25:01.232Z,997.27
2019-04-27T04:30:01.434Z,997.15
2019-04-27T04:35:01.712Z,997.16
2019-04-27T04:40:01.381Z,997.18
2019-04-27T04:45:01.518Z,997.11
2019-04-27T04:50:11.346Z,997.13
2019-04-27T04:55:02.696Z,997.11
2019-04-27T05:00:02.051Z,997.09
2019-04-27T05:05:01.201Z,997.03
2019-04-27T05:10:01.351Z,997.12
2019-04-27T05:15:01.492Z,997.17
2019-04-27T05:20:01.647Z,997.16
2019-04-27T05:25:01.741Z,997.09
2019-04-27T05:30:01.893Z,997.07
2019-04-27T05:35:02.044Z,997.01
2019-04-27T05:40:01.133Z,997.05
2019-04-27T05:45:01.255Z,997.12
2019-04-27T05:50:01.412Z,997.08
2019-04-27T05:55:01.560Z,997.03
2019-04-27T06:00:02.619Z,996.95
2019-04-27T06:05:01.921Z,996.96
2019-04-27T06:10:02.185Z,996.89
2019-04-27T06:15:01.329Z,996.9
2019-04-27T06:20:01.480Z,996.87
2019-04-27T06:25:01.578Z,996.92
2019-04-27T06:30:04.769Z,996.89
2019-04-27T06:35:01.121Z,996.82
2019-04-27T06:40:01.235Z,996.92
2019-04-27T06:45:01.364Z,996.9
2019-04-27T06:50:01.517Z,996.94
2019-04-27T06:55:01.664Z,996.82
2019-04-27T07:00:01.791Z,996.79
2019-04-27T07:05:01.937Z,996.78
2019-04-27T07:10:02.102Z,996.77
2019-04-27T07:15:01.237Z,996.88
2019-04-27T07:20:01.385Z,996.87
2019-04-27T07:25:01.534Z,996.74
2019-04-27T07:30:01.912Z,996.8
2019-04-27T07:35:02.046Z,996.81
2019-04-27T07:40:01.171Z,996.87
2019-04-27T07:45:01.263Z,996.89
2019-04-27T07:50:01.653Z,996.83
2019-04-27T07:55:01.813Z,996.88
2019-04-27T08:00:01.968Z,996.74
2019-04-27T08:05:01.137Z,996.65
2019-04-27T08:10:01.820Z,996.62
2019-04-27T08:15:02.054Z,996.5
2019-04-27T08:20:01.189Z,996.42
2019-04-27T08:25:01.314Z,996.39
2019-04-27T08:30:01.461Z,996.3
2019-04-27T08:35:01.614Z,996.39
2019-04-27T08:40:01.752Z,996.41
2019-04-27T08:45:01.887Z,996.38
2019-04-27T08:50:02.040Z,996.33
2019-04-27T08:55:01.176Z,996.26
2019-04-27T09:00:01.321Z,996.35
2019-04-27T09:05:01.499Z,996.17
2019-04-27T09:10:01.658Z,996.27
2019-04-27T09:15:01.789Z,996.22
2019-04-27T09:20:01.951Z,996.12
2019-04-27T09:25:02.050Z,996.15
2019-04-27T09:30:01.201Z,996.05
2019-04-27T09:35:01.361Z,996.07
2019-04-27T09:40:01.492Z,996.04
2019-04-27T09:45:01.652Z,996.07
2019-04-27T09:50:01.805Z,996.05
2019-04-27T09:55:01.925Z,996
2019-04-27T10:00:02.054Z,995.99
2019-04-27T10:05:01.222Z,995.95
2019-04-27T10:10:01.376Z,996.08
2019-04-27T10:15:01.499Z,996.37
2019-04-27T10:20:01.599Z,996.41
2019-04-27T10:25:01.745Z,996.53
2019-04-27T10:30:01.918Z,996.65
2019-04-27T10:35:02.069Z,996.78
2019-04-27T10:40:01.201Z,996.63
2019-04-27T10:45:01.291Z,996.8
2019-04-27T10:50:01.439Z,996.76
2019-04-27T10:55:01.564Z,996.74
2019-04-27T11:00:01.770Z,996.76
2019-04-27T11:05:01.923Z,996.74
2019-04-27T11:10:02.088Z,996.72
2019-04-27T11:15:01.221Z,996.73
2019-04-27T11:20:02.828Z,996.96
2019-04-27T11:25:02.061Z,996.96
2019-04-27T11:30:01.237Z,996.96
2019-04-27T11:35:01.368Z,997.03
2019-04-27T11:40:01.507Z,996.95
2019-04-27T11:45:01.644Z,997.02
2019-04-27T11:50:01.799Z,996.94
2019-04-27T11:55:01.953Z,996.82
2019-04-27T12:00:02.101Z,996.83
2019-04-27T12:05:01.243Z,996.97
2019-04-27T12:10:01.418Z,996.97
2019-04-27T12:15:01.522Z,997.31
2019-04-27T12:20:01.669Z,997.36
2019-04-27T12:25:01.812Z,997.3
2019-04-27T12:30:01.927Z,997.1
2019-04-27T12:35:02.062Z,997.04
2019-04-27T12:40:01.199Z,996.97
2019-04-27T12:45:01.330Z,996.96
2019-04-27T12:50:01.495Z,996.95
2019-04-27T12:55:01.628Z,997.02
2019-04-27T13:00:01.763Z,997.06
2019-04-27T13:05:01.859Z,997.11
2019-04-27T13:10:02.002Z,996.88
2019-04-27T13:15:01.132Z,996.91
2019-04-27T13:20:01.717Z,996.81
2019-04-27T13:25:01.805Z,996.71
2019-04-27T13:30:04.741Z,996.67
2019-04-27T13:35:02.018Z,996.59
2019-04-27T13:40:07.245Z,996.57
2019-04-27T13:45:01.528Z,996.56
2019-04-27T13:50:01.678Z,996.47
2019-04-27T13:55:01.803Z,996.52
2019-04-27T14:00:01.934Z,996.47
2019-04-27T14:05:02.048Z,996.45
2019-04-27T14:10:01.175Z,996.3
2019-04-27T14:15:01.304Z,996.22
2019-04-27T14:20:01.435Z,996.36
2019-04-27T14:25:01.562Z,996.61
2019-04-27T14:30:01.710Z,996.56
2019-04-27T14:35:01.829Z,996.69
2019-04-27T14:40:01.959Z,996.64
2019-04-27T14:45:02.123Z,996.75
2019-04-27T14:50:01.263Z,996.66
2019-04-27T14:55:01.386Z,996.58
2019-04-27T15:00:01.490Z,996.53
2019-04-27T15:05:01.683Z,996.41
2019-04-27T15:10:01.819Z,996.34
2019-04-27T15:15:01.931Z,996.53
2019-04-27T15:20:02.091Z,996.59
2019-04-27T15:25:11.995Z,996.72
2019-04-27T15:30:06.050Z,996.87
2019-04-27T15:35:05.299Z,997.34
2019-04-27T15:40:08.346Z,997.55
2019-04-27T15:45:01.945Z,997.37
2019-04-27T15:50:02.072Z,997.22
2019-04-27T15:55:02.884Z,997.15
2019-04-27T16:00:01.173Z,997.16
2019-04-27T16:05:01.324Z,997.16
2019-04-27T16:10:02.784Z,997.23
2019-04-27T16:15:04.995Z,997.31
2019-04-27T16:20:01.356Z,997.4
2019-04-27T16:25:03.803Z,997.47
2019-04-27T16:30:09.883Z,997.53
2019-04-27T16:35:01.198Z,997.62
2019-04-27T16:40:01.361Z,997.58
2019-04-27T16:45:01.506Z,997.71
2019-04-27T16:50:01.645Z,997.77
2019-04-27T16:55:01.740Z,997.74
2019-04-27T17:00:01.941Z,997.8
2019-04-27T17:05:02.077Z,997.75
2019-04-27T17:10:01.213Z,997.86
2019-04-27T17:15:01.341Z,997.77
2019-04-27T17:20:01.510Z,997.75
2019-04-27T17:25:01.641Z,997.79
2019-04-27T17:30:01.924Z,997.84
2019-04-27T17:35:05.026Z,998.05
2019-04-27T17:40:01.888Z,998.09
2019-04-27T17:45:02.009Z,998.26
2019-04-27T17:50:01.141Z,998.37
2019-04-27T17:55:01.299Z,998.24
2019-04-27T18:00:03.233Z,998.25
2019-04-27T18:05:01.699Z,998.33
2019-04-27T18:10:01.828Z,998.42
2019-04-27T18:15:01.933Z,998.56
2019-04-27T18:20:02.098Z,998.46
2019-04-27T18:25:06.068Z,998.57
2019-04-27T18:30:03.258Z,998.61
2019-04-27T18:35:01.663Z,998.61
2019-04-27T18:40:01.815Z,998.71
2019-04-27T18:45:06.812Z,998.81
2019-04-27T18:50:10.979Z,998.92
2019-04-27T18:55:01.718Z,998.98
2019-04-27T19:00:01.877Z,999.05
2019-04-27T19:05:01.990Z,999.23
2019-04-27T19:10:02.223Z,999.21
2019-04-27T19:15:01.402Z,999.29
2019-04-27T19:20:01.609Z,999.37
2019-04-27T19:25:01.705Z,999.38
2019-04-27T19:30:01.827Z,999.37
2019-04-27T19:35:01.977Z,999.48
2019-04-27T19:40:02.135Z,999.56
2019-04-27T19:45:01.269Z,999.65
2019-04-27T19:50:01.390Z,999.72
2019-04-27T19:55:01.482Z,999.74
2019-04-27T20:00:01.647Z,999.8
2019-04-27T20:05:01.780Z,999.74
2019-04-27T20:10:01.911Z,999.73
2019-04-27T20:15:02.278Z,999.79
2019-04-27T20:20:01.649Z,999.78
2019-04-27T20:25:02.127Z,999.77
2019-04-27T20:30:03.074Z,999.75
2019-04-27T20:35:01.761Z,999.78
2019-04-27T20:40:02.035Z,999.87
2019-04-27T20:45:02.122Z,999.92
2019-04-27T20:50:01.363Z,999.94
2019-04-27T20:55:01.656Z,1000.01
2019-04-27T21:00:02.168Z,1000.08
2019-04-27T21:05:01.410Z,1000.05
2019-04-27T21:10:01.547Z,1000.02
2019-04-27T21:15:01.677Z,1000.05
2019-04-27T21:20:01.821Z,1000.14
2019-04-27T21:25:01.958Z,1000.19
2019-04-27T21:30:02.807Z,1000.24
2019-04-27T21:35:02.045Z,1000.23
2019-04-27T21:40:02.044Z,1000.22
2019-04-27T21:45:01.306Z,1000.28
2019-04-27T21:50:01.457Z,1000.29
2019-04-27T21:55:01.618Z,1000.37
2019-04-27T22:00:01.749Z,1000.36
2019-04-27T22:05:01.861Z,1000.37
2019-04-27T22:10:02.070Z,1000.4
2019-04-27T22:15:01.226Z,1000.43
2019-04-27T22:20:01.670Z,1000.42
2019-04-27T22:25:01.918Z,1000.5
2019-04-27T22:30:02.058Z,1000.5
2019-04-27T22:35:01.181Z,1000.54
2019-04-27T22:40:01.306Z,1000.56
2019-04-27T22:45:01.451Z,1000.53
2019-04-27T22:50:01.592Z,1000.55
2019-04-27T22:55:01.780Z,1000.58
2019-04-27T23:00:03.662Z,1000.64
2019-04-27T23:05:02.359Z,1000.67
2019-04-27T23:10:01.892Z,1000.67
2019-04-27T23:15:02.056Z,1000.62
2019-04-27T23:20:01.575Z,1000.66
2019-04-27T23:25:01.761Z,1000.59
2019-04-27T23:30:01.856Z,1000.59
2019-04-27T23:35:01.991Z,1000.63
2019-04-27T23:40:02.985Z,1000.57
2019-04-27T23:45:01.207Z,1000.52
2019-04-27T23:50:01.347Z,1000.53
2019-04-27T23:55:02.338Z,1000.54
